sensor_id;sensor_type;location;lat;lon;timestamp;temperature;humidity
35129;DHT22;21301;43.626;10.580;2023-08-12T00:02:09;23.10;2.20
35129;DHT22;21301;43.626;10.580;2023-08-12T00:04:36;23.00;95.50
35129;DHT22;21301;43.626;10.580;2023-08-12T00:07:03;22.80;99.90
35129;DHT22;21301;43.626;10.580;2023-08-12T00:09:29;22.90;99.90
35129;DHT22;21301;43.626;10.580;2023-08-12T00:11:56;22.80;99.90
35129;DHT22;21301;43.626;10.580;2023-08-12T00:14:22;22.60;99.90
35129;DHT22;21301;43.626;10.580;2023-08-12T00:16:47;22.40;99.90
35129;DHT22;21301;43.626;10.580;2023-08-12T00:19:13;22.30;57.80
35129;DHT22;21301;43.626;10.580;2023-08-12T00:21:39;22.20;99.90
35129;DHT22;21301;43.626;10.580;2023-08-12T00:24:05;22.30;99.90
35129;DHT22;21301;43.626;10.580;2023-08-12T00:26:31;22.10;99.90
35129;DHT22;21301;43.626;10.580;2023-08-12T00:28:56;22.10;1.00
35129;DHT22;21301;43.626;10.580;2023-08-12T00:31:22;22.10;19.00
35129;DHT22;21301;43.626;10.580;2023-08-12T00:33:48;22.10;99.90
35129;DHT22;21301;43.626;10.580;2023-08-12T00:36:15;21.90;99.90
35129;DHT22;21301;43.626;10.580;2023-08-12T00:38:41;21.90;76.50
35129;DHT22;21301;43.626;10.580;2023-08-12T00:41:07;21.70;99.90
35129;DHT22;21301;43.626;10.580;2023-08-12T00:43:33;21.70;1.00
35129;DHT22;21301;43.626;10.580;2023-08-12T00:46:00;21.70;99.90
35129;DHT22;21301;43.626;10.580;2023-08-12T00:48:26;21.60;1.00
35129;DHT22;21301;43.626;10.580;2023-08-12T00:50:56;21.50;99.90
35129;DHT22;21301;43.626;10.580;2023-08-12T00:56:31;21.60;99.90
35129;DHT22;21301;43.626;10.580;2023-08-12T00:59:04;21.60;99.90
35129;DHT22;21301;43.626;10.580;2023-08-12T01:01:31;21.50;17.40
35129;DHT22;21301;43.626;10.580;2023-08-12T01:03:58;21.50;99.90
35129;DHT22;21301;43.626;10.580;2023-08-12T01:06:24;21.40;99.90
35129;DHT22;21301;43.626;10.580;2023-08-12T01:08:50;21.40;95.40
35129;DHT22;21301;43.626;10.580;2023-08-12T01:11:21;21.40;99.90
35129;DHT22;21301;43.626;10.580;2023-08-12T01:14:05;21.30;49.00
35129;DHT22;21301;43.626;10.580;2023-08-12T01:16:36;21.30;99.90
35129;DHT22;21301;43.626;10.580;2023-08-12T01:19:05;21.20;1.00
35129;DHT22;21301;43.626;10.580;2023-08-12T01:21:33;21.20;99.90
35129;DHT22;21301;43.626;10.580;2023-08-12T01:24:21;21.10;99.90
35129;DHT22;21301;43.626;10.580;2023-08-12T01:26:47;21.20;99.90
35129;DHT22;21301;43.626;10.580;2023-08-12T01:29:13;21.10;99.90
35129;DHT22;21301;43.626;10.580;2023-08-12T01:31:51;21.00;99.90
35129;DHT22;21301;43.626;10.580;2023-08-12T01:34:34;20.90;1.00
35129;DHT22;21301;43.626;10.580;2023-08-12T01:37:03;20.90;99.90
35129;DHT22;21301;43.626;10.580;2023-08-12T01:39:31;21.00;99.90
35129;DHT22;21301;43.626;10.580;2023-08-12T01:42:01;20.90;99.90
35129;DHT22;21301;43.626;10.580;2023-08-12T01:44:28;20.90;99.90
35129;DHT22;21301;43.626;10.580;2023-08-12T01:46:54;20.90;1.00
35129;DHT22;21301;43.626;10.580;2023-08-12T01:49:19;20.90;42.70
35129;DHT22;21301;43.626;10.580;2023-08-12T01:51:45;20.80;99.90
35129;DHT22;21301;43.626;10.580;2023-08-12T01:54:11;20.80;99.90
35129;DHT22;21301;43.626;10.580;2023-08-12T01:56:37;20.80;99.90
35129;DHT22;21301;43.626;10.580;2023-08-12T01:59:03;20.80;99.90
35129;DHT22;21301;43.626;10.580;2023-08-12T02:01:29;20.90;99.90
35129;DHT22;21301;43.626;10.580;2023-08-12T02:03:55;20.90;99.90
35129;DHT22;21301;43.626;10.580;2023-08-12T02:06:21;20.90;99.90
35129;DHT22;21301;43.626;10.580;2023-08-12T02:08:47;20.90;99.90
35129;DHT22;21301;43.626;10.580;2023-08-12T02:11:13;20.90;99.90
35129;DHT22;21301;43.626;10.580;2023-08-12T02:13:39;20.90;99.90
35129;DHT22;21301;43.626;10.580;2023-08-12T02:16:05;20.80;99.90
35129;DHT22;21301;43.626;10.580;2023-08-12T02:18:31;20.80;99.90
35129;DHT22;21301;43.626;10.580;2023-08-12T02:20:57;20.70;99.90
35129;DHT22;21301;43.626;10.580;2023-08-12T02:23:23;20.60;99.90
35129;DHT22;21301;43.626;10.580;2023-08-12T02:25:48;20.70;99.90
35129;DHT22;21301;43.626;10.580;2023-08-12T02:28:14;20.50;99.90
35129;DHT22;21301;43.626;10.580;2023-08-12T02:30:42;20.50;99.90
35129;DHT22;21301;43.626;10.580;2023-08-12T02:33:09;20.30;99.90
35129;DHT22;21301;43.626;10.580;2023-08-12T02:35:34;20.20;99.90
35129;DHT22;21301;43.626;10.580;2023-08-12T02:38:03;20.20;1.00
35129;DHT22;21301;43.626;10.580;2023-08-12T02:40:29;20.20;1.00
35129;DHT22;21301;43.626;10.580;2023-08-12T02:42:56;20.20;1.00
35129;DHT22;21301;43.626;10.580;2023-08-12T02:45:21;20.10;10.80
35129;DHT22;21301;43.626;10.580;2023-08-12T02:47:48;20.10;28.10
35129;DHT22;21301;43.626;10.580;2023-08-12T02:50:13;20.10;39.40
35129;DHT22;21301;43.626;10.580;2023-08-12T02:52:39;20.20;39.00
35129;DHT22;21301;43.626;10.580;2023-08-12T02:55:05;20.20;33.70
35129;DHT22;21301;43.626;10.580;2023-08-12T02:57:31;20.20;32.00
35129;DHT22;21301;43.626;10.580;2023-08-12T02:59:58;20.20;23.40
35129;DHT22;21301;43.626;10.580;2023-08-12T03:02:23;20.00;32.60
35129;DHT22;21301;43.626;10.580;2023-08-12T03:04:49;19.80;66.10
35129;DHT22;21301;43.626;10.580;2023-08-12T03:07:15;19.80;82.70
35129;DHT22;21301;43.626;10.580;2023-08-12T03:09:41;19.80;92.70
35129;DHT22;21301;43.626;10.580;2023-08-12T03:12:07;19.80;95.10
35129;DHT22;21301;43.626;10.580;2023-08-12T03:14:33;19.70;95.90
35129;DHT22;21301;43.626;10.580;2023-08-12T03:17:01;19.70;96.90
35129;DHT22;21301;43.626;10.580;2023-08-12T03:19:27;19.70;99.30
35129;DHT22;21301;43.626;10.580;2023-08-12T03:21:53;19.80;99.90
35129;DHT22;21301;43.626;10.580;2023-08-12T03:24:21;19.80;96.50
35129;DHT22;21301;43.626;10.580;2023-08-12T03:26:47;19.70;91.80
35129;DHT22;21301;43.626;10.580;2023-08-12T03:29:13;19.70;96.50
35129;DHT22;21301;43.626;10.580;2023-08-12T03:31:41;19.60;92.90
35129;DHT22;21301;43.626;10.580;2023-08-12T03:34:07;19.60;94.10
35129;DHT22;21301;43.626;10.580;2023-08-12T03:36:53;19.30;98.00
35129;DHT22;21301;43.626;10.580;2023-08-12T03:43:07;19.30;99.90
35129;DHT22;21301;43.626;10.580;2023-08-12T03:45:40;19.20;99.90
35129;DHT22;21301;43.626;10.580;2023-08-12T03:48:06;19.20;99.90
35129;DHT22;21301;43.626;10.580;2023-08-12T03:50:36;19.40;99.90
35129;DHT22;21301;43.626;10.580;2023-08-12T03:53:03;19.50;99.90
35129;DHT22;21301;43.626;10.580;2023-08-12T03:55:33;19.60;99.90
35129;DHT22;21301;43.626;10.580;2023-08-12T03:58:00;19.40;99.90
35129;DHT22;21301;43.626;10.580;2023-08-12T04:00:27;19.30;99.90
35129;DHT22;21301;43.626;10.580;2023-08-12T04:02:56;19.30;99.90
35129;DHT22;21301;43.626;10.580;2023-08-12T04:05:22;19.30;99.90
35129;DHT22;21301;43.626;10.580;2023-08-12T04:07:49;19.30;99.90
35129;DHT22;21301;43.626;10.580;2023-08-12T04:10:17;19.30;99.90
35129;DHT22;21301;43.626;10.580;2023-08-12T04:12:44;19.30;99.90
35129;DHT22;21301;43.626;10.580;2023-08-12T04:15:10;19.10;99.90
35129;DHT22;21301;43.626;10.580;2023-08-12T04:17:37;19.10;99.90
35129;DHT22;21301;43.626;10.580;2023-08-12T04:20:05;19.10;99.90
35129;DHT22;21301;43.626;10.580;2023-08-12T04:22:35;19.30;99.90
35129;DHT22;21301;43.626;10.580;2023-08-12T04:25:02;19.40;99.90
35129;DHT22;21301;43.626;10.580;2023-08-12T04:27:28;19.50;99.90
35129;DHT22;21301;43.626;10.580;2023-08-12T04:29:54;19.60;99.90
35129;DHT22;21301;43.626;10.580;2023-08-12T04:32:20;19.40;99.90
35129;DHT22;21301;43.626;10.580;2023-08-12T04:34:46;19.40;99.90
35129;DHT22;21301;43.626;10.580;2023-08-12T04:37:13;19.40;99.90
35129;DHT22;21301;43.626;10.580;2023-08-12T04:39:39;19.30;99.90
35129;DHT22;21301;43.626;10.580;2023-08-12T04:42:08;19.40;99.90
35129;DHT22;21301;43.626;10.580;2023-08-12T04:44:35;19.50;99.90
35129;DHT22;21301;43.626;10.580;2023-08-12T04:47:02;19.70;99.90
35129;DHT22;21301;43.626;10.580;2023-08-12T04:49:30;19.90;99.90
35129;DHT22;21301;43.626;10.580;2023-08-12T04:51:56;20.00;99.90
35129;DHT22;21301;43.626;10.580;2023-08-12T04:54:22;20.00;99.90
35129;DHT22;21301;43.626;10.580;2023-08-12T04:56:48;20.10;99.90
35129;DHT22;21301;43.626;10.580;2023-08-12T04:59:14;20.20;99.90
35129;DHT22;21301;43.626;10.580;2023-08-12T05:01:41;20.30;99.70
35129;DHT22;21301;43.626;10.580;2023-08-12T05:04:08;20.50;92.80
35129;DHT22;21301;43.626;10.580;2023-08-12T05:06:34;20.80;84.30
35129;DHT22;21301;43.626;10.580;2023-08-12T05:09:02;21.00;66.80
35129;DHT22;21301;43.626;10.580;2023-08-12T05:11:29;21.30;42.20
35129;DHT22;21301;43.626;10.580;2023-08-12T05:13:55;21.60;20.60
35129;DHT22;21301;43.626;10.580;2023-08-12T05:16:21;21.70;3.20
35129;DHT22;21301;43.626;10.580;2023-08-12T05:18:48;22.10;1.00
35129;DHT22;21301;43.626;10.580;2023-08-12T05:21:15;22.40;1.00
35129;DHT22;21301;43.626;10.580;2023-08-12T05:23:41;22.80;1.00
35129;DHT22;21301;43.626;10.580;2023-08-12T05:26:07;23.00;99.90
35129;DHT22;21301;43.626;10.580;2023-08-12T05:28:34;22.70;99.90
35129;DHT22;21301;43.626;10.580;2023-08-12T05:31:01;22.50;99.90
35129;DHT22;21301;43.626;10.580;2023-08-12T05:33:27;22.50;99.90
35129;DHT22;21301;43.626;10.580;2023-08-12T05:35:53;22.40;99.90
35129;DHT22;21301;43.626;10.580;2023-08-12T05:38:18;22.50;99.90
35129;DHT22;21301;43.626;10.580;2023-08-12T05:40:44;22.60;99.90
35129;DHT22;21301;43.626;10.580;2023-08-12T05:43:10;22.50;99.90
35129;DHT22;21301;43.626;10.580;2023-08-12T05:45:36;22.80;99.90
35129;DHT22;21301;43.626;10.580;2023-08-12T05:48:02;23.00;99.90
35129;DHT22;21301;43.626;10.580;2023-08-12T05:50:27;23.10;99.90
35129;DHT22;21301;43.626;10.580;2023-08-12T05:52:53;23.60;99.90
35129;DHT22;21301;43.626;10.580;2023-08-12T05:55:19;23.60;91.30
35129;DHT22;21301;43.626;10.580;2023-08-12T05:57:45;23.90;58.40
35129;DHT22;21301;43.626;10.580;2023-08-12T06:00:11;24.20;99.90
35129;DHT22;21301;43.626;10.580;2023-08-12T06:02:39;24.40;99.90
35129;DHT22;21301;43.626;10.580;2023-08-12T06:05:06;24.30;72.30
35129;DHT22;21301;43.626;10.580;2023-08-12T06:07:35;24.30;99.90
35129;DHT22;21301;43.626;10.580;2023-08-12T06:10:01;24.40;99.90
35129;DHT22;21301;43.626;10.580;2023-08-12T06:12:27;24.30;76.80
35129;DHT22;21301;43.626;10.580;2023-08-12T06:14:54;24.40;1.00
35129;DHT22;21301;43.626;10.580;2023-08-12T06:17:26;24.70;99.90
35129;DHT22;21301;43.626;10.580;2023-08-12T06:19:52;24.90;99.90
35129;DHT22;21301;43.626;10.580;2023-08-12T06:22:18;25.30;44.50
35129;DHT22;21301;43.626;10.580;2023-08-12T06:24:45;25.50;1.00
35129;DHT22;21301;43.626;10.580;2023-08-12T06:27:12;25.70;99.90
35129;DHT22;21301;43.626;10.580;2023-08-12T06:29:39;26.00;99.90
35129;DHT22;21301;43.626;10.580;2023-08-12T06:32:05;26.00;99.90
35129;DHT22;21301;43.626;10.580;2023-08-12T06:34:33;26.10;99.90
35129;DHT22;21301;43.626;10.580;2023-08-12T06:37:02;26.30;99.90
35129;DHT22;21301;43.626;10.580;2023-08-12T06:39:28;26.20;99.90
35129;DHT22;21301;43.626;10.580;2023-08-12T06:41:55;26.40;99.90
35129;DHT22;21301;43.626;10.580;2023-08-12T06:44:21;26.50;99.90
35129;DHT22;21301;43.626;10.580;2023-08-12T06:46:47;26.80;99.90
35129;DHT22;21301;43.626;10.580;2023-08-12T06:49:13;27.00;99.90
35129;DHT22;21301;43.626;10.580;2023-08-12T06:51:38;27.20;99.90
35129;DHT22;21301;43.626;10.580;2023-08-12T06:54:05;27.30;72.70
35129;DHT22;21301;43.626;10.580;2023-08-12T06:56:30;27.20;90.00
35129;DHT22;21301;43.626;10.580;2023-08-12T06:58:56;27.10;87.80
35129;DHT22;21301;43.626;10.580;2023-08-12T07:01:22;27.20;92.30
35129;DHT22;21301;43.626;10.580;2023-08-12T07:03:48;27.50;78.80
35129;DHT22;21301;43.626;10.580;2023-08-12T07:06:15;27.40;68.70
35129;DHT22;21301;43.626;10.580;2023-08-12T07:08:42;27.30;89.60
35129;DHT22;21301;43.626;10.580;2023-08-12T07:11:08;28.00;52.80
35129;DHT22;21301;43.626;10.580;2023-08-12T07:13:34;27.90;46.90
35129;DHT22;21301;43.626;10.580;2023-08-12T07:16:00;28.40;30.10
35129;DHT22;21301;43.626;10.580;2023-08-12T07:18:27;28.70;21.30
35129;DHT22;21301;43.626;10.580;2023-08-12T07:20:54;29.20;1.70
35129;DHT22;21301;43.626;10.580;2023-08-12T07:23:20;28.90;1.00
35129;DHT22;21301;43.626;10.580;2023-08-12T07:25:49;29.20;1.00
35129;DHT22;21301;43.626;10.580;2023-08-12T07:28:15;29.50;1.00
35129;DHT22;21301;43.626;10.580;2023-08-12T07:30:41;29.30;1.00
35129;DHT22;21301;43.626;10.580;2023-08-12T07:33:07;29.30;1.00
35129;DHT22;21301;43.626;10.580;2023-08-12T07:35:33;29.10;1.00
35129;DHT22;21301;43.626;10.580;2023-08-12T07:37:59;29.00;1.00
35129;DHT22;21301;43.626;10.580;2023-08-12T07:40:26;28.90;1.00
35129;DHT22;21301;43.626;10.580;2023-08-12T07:42:51;29.80;1.00
35129;DHT22;21301;43.626;10.580;2023-08-12T07:45:19;29.90;1.00
35129;DHT22;21301;43.626;10.580;2023-08-12T07:47:45;30.10;99.90
35129;DHT22;21301;43.626;10.580;2023-08-12T07:50:11;30.10;99.90
35129;DHT22;21301;43.626;10.580;2023-08-12T07:52:37;30.60;99.90
35129;DHT22;21301;43.626;10.580;2023-08-12T07:55:03;31.10;99.90
35129;DHT22;21301;43.626;10.580;2023-08-12T07:57:29;30.90;99.90
35129;DHT22;21301;43.626;10.580;2023-08-12T07:59:54;31.10;99.90
35129;DHT22;21301;43.626;10.580;2023-08-12T08:02:21;31.00;99.90
35129;DHT22;21301;43.626;10.580;2023-08-12T08:04:47;31.40;99.90
35129;DHT22;21301;43.626;10.580;2023-08-12T08:07:15;32.00;99.90
35129;DHT22;21301;43.626;10.580;2023-08-12T08:09:42;32.40;99.90
35129;DHT22;21301;43.626;10.580;2023-08-12T08:12:09;32.20;99.90
35129;DHT22;21301;43.626;10.580;2023-08-12T08:14:37;32.70;99.90
35129;DHT22;21301;43.626;10.580;2023-08-12T08:17:03;32.60;99.90
35129;DHT22;21301;43.626;10.580;2023-08-12T08:19:29;32.40;99.90
35129;DHT22;21301;43.626;10.580;2023-08-12T08:21:56;32.50;99.90
35129;DHT22;21301;43.626;10.580;2023-08-12T08:24:22;33.00;99.90
35129;DHT22;21301;43.626;10.580;2023-08-12T08:26:48;33.30;99.90
35129;DHT22;21301;43.626;10.580;2023-08-12T08:29:14;33.50;99.90
35129;DHT22;21301;43.626;10.580;2023-08-12T08:31:40;33.70;99.90
35129;DHT22;21301;43.626;10.580;2023-08-12T08:34:07;34.00;99.90
35129;DHT22;21301;43.626;10.580;2023-08-12T08:36:33;33.70;99.90
35129;DHT22;21301;43.626;10.580;2023-08-12T08:38:59;34.10;99.90
35129;DHT22;21301;43.626;10.580;2023-08-12T08:41:26;34.10;99.90
35129;DHT22;21301;43.626;10.580;2023-08-12T08:43:55;34.40;99.90
35129;DHT22;21301;43.626;10.580;2023-08-12T08:46:23;34.10;99.90
35129;DHT22;21301;43.626;10.580;2023-08-12T08:48:50;34.10;99.90
35129;DHT22;21301;43.626;10.580;2023-08-12T08:51:18;34.20;99.90
35129;DHT22;21301;43.626;10.580;2023-08-12T08:53:44;34.20;99.90
35129;DHT22;21301;43.626;10.580;2023-08-12T08:56:10;34.00;99.90
35129;DHT22;21301;43.626;10.580;2023-08-12T08:58:38;34.50;99.90
35129;DHT22;21301;43.626;10.580;2023-08-12T09:01:06;34.20;99.90
35129;DHT22;21301;43.626;10.580;2023-08-12T09:03:34;34.60;99.90
35129;DHT22;21301;43.626;10.580;2023-08-12T09:06:01;34.80;99.90
35129;DHT22;21301;43.626;10.580;2023-08-12T09:08:27;34.90;99.90
35129;DHT22;21301;43.626;10.580;2023-08-12T09:10:57;35.10;99.90
35129;DHT22;21301;43.626;10.580;2023-08-12T09:13:23;35.30;99.90
35129;DHT22;21301;43.626;10.580;2023-08-12T09:15:49;35.20;99.90
35129;DHT22;21301;43.626;10.580;2023-08-12T09:18:17;35.10;99.90
35129;DHT22;21301;43.626;10.580;2023-08-12T09:20:44;35.30;99.90
35129;DHT22;21301;43.626;10.580;2023-08-12T09:23:12;34.80;99.90
35129;DHT22;21301;43.626;10.580;2023-08-12T09:25:42;34.50;99.90
35129;DHT22;21301;43.626;10.580;2023-08-12T09:28:12;34.60;99.90
35129;DHT22;21301;43.626;10.580;2023-08-12T09:30:40;34.50;99.90
35129;DHT22;21301;43.626;10.580;2023-08-12T09:33:07;34.60;99.90
35129;DHT22;21301;43.626;10.580;2023-08-12T09:35:42;34.90;99.90
35129;DHT22;21301;43.626;10.580;2023-08-12T09:38:15;35.00;99.90
35129;DHT22;21301;43.626;10.580;2023-08-12T09:40:46;34.80;99.90
35129;DHT22;21301;43.626;10.580;2023-08-12T09:43:13;35.10;99.90
35129;DHT22;21301;43.626;10.580;2023-08-12T09:45:39;35.40;99.90
35129;DHT22;21301;43.626;10.580;2023-08-12T09:48:08;35.50;99.90
35129;DHT22;21301;43.626;10.580;2023-08-12T09:50:36;35.60;99.90
35129;DHT22;21301;43.626;10.580;2023-08-12T09:53:02;36.00;99.90
35129;DHT22;21301;43.626;10.580;2023-08-12T09:55:29;35.90;99.90
35129;DHT22;21301;43.626;10.580;2023-08-12T09:58:00;36.10;99.90
35129;DHT22;21301;43.626;10.580;2023-08-12T10:00:27;36.20;99.90
35129;DHT22;21301;43.626;10.580;2023-08-12T10:02:53;36.10;99.90
35129;DHT22;21301;43.626;10.580;2023-08-12T10:05:24;36.10;99.90
35129;DHT22;21301;43.626;10.580;2023-08-12T10:07:53;35.90;99.90
35129;DHT22;21301;43.626;10.580;2023-08-12T10:10:20;35.90;99.90
35129;DHT22;21301;43.626;10.580;2023-08-12T10:12:49;36.10;99.90
35129;DHT22;21301;43.626;10.580;2023-08-12T10:15:16;36.50;99.90
35129;DHT22;21301;43.626;10.580;2023-08-12T10:17:44;36.20;99.90
35129;DHT22;21301;43.626;10.580;2023-08-12T10:20:16;36.50;99.90
35129;DHT22;21301;43.626;10.580;2023-08-12T10:22:46;36.50;99.90
35129;DHT22;21301;43.626;10.580;2023-08-12T10:25:14;36.60;99.90
35129;DHT22;21301;43.626;10.580;2023-08-12T10:27:41;36.60;99.90
35129;DHT22;21301;43.626;10.580;2023-08-12T10:30:07;36.80;99.90
35129;DHT22;21301;43.626;10.580;2023-08-12T10:32:33;36.80;99.90
35129;DHT22;21301;43.626;10.580;2023-08-12T10:35:04;37.30;99.90
35129;DHT22;21301;43.626;10.580;2023-08-12T10:37:32;37.40;99.90
35129;DHT22;21301;43.626;10.580;2023-08-12T10:40:00;37.40;99.90
35129;DHT22;21301;43.626;10.580;2023-08-12T10:42:47;37.40;99.90
35129;DHT22;21301;43.626;10.580;2023-08-12T10:45:15;37.40;99.90
35129;DHT22;21301;43.626;10.580;2023-08-12T10:50:35;37.50;99.90
35129;DHT22;21301;43.626;10.580;2023-08-12T10:53:25;37.50;99.90
35129;DHT22;21301;43.626;10.580;2023-08-12T10:56:04;37.70;99.90
35129;DHT22;21301;43.626;10.580;2023-08-12T10:58:50;37.60;99.90
35129;DHT22;21301;43.626;10.580;2023-08-12T11:01:20;37.70;99.90
35129;DHT22;21301;43.626;10.580;2023-08-12T11:03:47;37.90;99.90
35129;DHT22;21301;43.626;10.580;2023-08-12T11:06:13;37.80;99.90
35129;DHT22;21301;43.626;10.580;2023-08-12T11:08:59;37.80;99.90
35129;DHT22;21301;43.626;10.580;2023-08-12T11:11:26;37.80;99.90
35129;DHT22;21301;43.626;10.580;2023-08-12T11:14:11;38.00;99.90
35129;DHT22;21301;43.626;10.580;2023-08-12T11:16:42;37.90;99.90
35129;DHT22;21301;43.626;10.580;2023-08-12T11:19:11;37.90;99.90
35129;DHT22;21301;43.626;10.580;2023-08-12T11:21:40;37.80;99.90
35129;DHT22;21301;43.626;10.580;2023-08-12T11:24:08;37.50;99.90
35129;DHT22;21301;43.626;10.580;2023-08-12T11:26:35;37.20;99.90
35129;DHT22;21301;43.626;10.580;2023-08-12T11:29:00;36.60;99.90
35129;DHT22;21301;43.626;10.580;2023-08-12T11:31:28;36.40;99.90
35129;DHT22;21301;43.626;10.580;2023-08-12T11:33:57;36.30;99.90
35129;DHT22;21301;43.626;10.580;2023-08-12T11:36:24;36.70;99.90
35129;DHT22;21301;43.626;10.580;2023-08-12T11:38:51;36.80;99.90
35129;DHT22;21301;43.626;10.580;2023-08-12T11:41:18;36.80;99.90
35129;DHT22;21301;43.626;10.580;2023-08-12T11:43:47;36.30;99.90
35129;DHT22;21301;43.626;10.580;2023-08-12T11:46:17;36.50;99.90
35129;DHT22;21301;43.626;10.580;2023-08-12T11:48:43;36.10;99.90
35129;DHT22;21301;43.626;10.580;2023-08-12T11:51:11;36.40;99.90
35129;DHT22;21301;43.626;10.580;2023-08-12T11:53:38;36.30;99.90
35129;DHT22;21301;43.626;10.580;2023-08-12T11:56:05;36.20;99.90
35129;DHT22;21301;43.626;10.580;2023-08-12T11:58:38;35.90;99.90
35129;DHT22;21301;43.626;10.580;2023-08-12T12:01:31;36.10;99.90
35129;DHT22;21301;43.626;10.580;2023-08-12T12:04:22;36.20;99.90
35129;DHT22;21301;43.626;10.580;2023-08-12T12:06:49;36.00;99.90
35129;DHT22;21301;43.626;10.580;2023-08-12T12:09:19;36.30;99.90
35129;DHT22;21301;43.626;10.580;2023-08-12T12:11:52;36.00;99.90
35129;DHT22;21301;43.626;10.580;2023-08-12T12:14:21;36.20;99.90
35129;DHT22;21301;43.626;10.580;2023-08-12T12:16:48;36.10;99.90
35129;DHT22;21301;43.626;10.580;2023-08-12T12:19:21;36.70;99.90
35129;DHT22;21301;43.626;10.580;2023-08-12T12:21:50;36.90;99.90
35129;DHT22;21301;43.626;10.580;2023-08-12T12:24:20;37.20;99.90
35129;DHT22;21301;43.626;10.580;2023-08-12T12:26:46;37.10;99.90
35129;DHT22;21301;43.626;10.580;2023-08-12T12:29:13;37.00;99.90
35129;DHT22;21301;43.626;10.580;2023-08-12T12:31:41;37.00;99.90
35129;DHT22;21301;43.626;10.580;2023-08-12T12:34:09;36.90;99.90
35129;DHT22;21301;43.626;10.580;2023-08-12T12:36:36;37.20;99.90
35129;DHT22;21301;43.626;10.580;2023-08-12T12:39:03;37.20;99.90
35129;DHT22;21301;43.626;10.580;2023-08-12T12:41:30;37.10;99.90
35129;DHT22;21301;43.626;10.580;2023-08-12T12:44:02;36.90;99.90
35129;DHT22;21301;43.626;10.580;2023-08-12T12:46:29;36.90;99.90
35129;DHT22;21301;43.626;10.580;2023-08-12T12:49:03;37.00;99.90
35129;DHT22;21301;43.626;10.580;2023-08-12T12:51:30;36.90;99.90
35129;DHT22;21301;43.626;10.580;2023-08-12T12:53:56;37.00;99.90
35129;DHT22;21301;43.626;10.580;2023-08-12T12:56:22;36.90;99.90
35129;DHT22;21301;43.626;10.580;2023-08-12T12:58:50;36.40;99.90
35129;DHT22;21301;43.626;10.580;2023-08-12T13:01:20;36.30;99.90
35129;DHT22;21301;43.626;10.580;2023-08-12T13:03:49;36.20;99.90
35129;DHT22;21301;43.626;10.580;2023-08-12T13:06:19;36.10;99.90
35129;DHT22;21301;43.626;10.580;2023-08-12T13:08:45;36.20;99.90
35129;DHT22;21301;43.626;10.580;2023-08-12T13:11:13;36.00;99.90
35129;DHT22;21301;43.626;10.580;2023-08-12T13:13:45;35.70;99.90
35129;DHT22;21301;43.626;10.580;2023-08-12T13:16:16;35.60;99.90
35129;DHT22;21301;43.626;10.580;2023-08-12T13:18:43;35.80;99.90
35129;DHT22;21301;43.626;10.580;2023-08-12T13:21:17;35.70;99.90
35129;DHT22;21301;43.626;10.580;2023-08-12T13:23:44;36.00;99.90
35129;DHT22;21301;43.626;10.580;2023-08-12T13:26:24;36.00;99.90
35129;DHT22;21301;43.626;10.580;2023-08-12T13:29:02;36.00;99.90
35129;DHT22;21301;43.626;10.580;2023-08-12T13:31:29;35.70;99.90
35129;DHT22;21301;43.626;10.580;2023-08-12T13:33:56;36.00;99.90
35129;DHT22;21301;43.626;10.580;2023-08-12T13:40:09;35.70;99.90
35129;DHT22;21301;43.626;10.580;2023-08-12T13:42:38;36.00;99.90
35129;DHT22;21301;43.626;10.580;2023-08-12T13:45:06;35.80;99.90
35129;DHT22;21301;43.626;10.580;2023-08-12T13:47:36;35.90;99.90
35129;DHT22;21301;43.626;10.580;2023-08-12T13:50:04;36.10;99.90
35129;DHT22;21301;43.626;10.580;2023-08-12T13:52:31;35.80;99.90
35129;DHT22;21301;43.626;10.580;2023-08-12T13:54:58;36.00;99.90
35129;DHT22;21301;43.626;10.580;2023-08-12T13:57:25;35.60;99.90
35129;DHT22;21301;43.626;10.580;2023-08-12T13:59:51;35.90;99.90
35129;DHT22;21301;43.626;10.580;2023-08-12T14:02:17;36.00;99.90
35129;DHT22;21301;43.626;10.580;2023-08-12T14:04:45;36.30;99.90
35129;DHT22;21301;43.626;10.580;2023-08-12T14:07:14;36.00;99.90
35129;DHT22;21301;43.626;10.580;2023-08-12T14:09:41;36.20;99.90
35129;DHT22;21301;43.626;10.580;2023-08-12T14:12:09;35.70;99.90
35129;DHT22;21301;43.626;10.580;2023-08-12T14:14:36;35.90;99.90
35129;DHT22;21301;43.626;10.580;2023-08-12T14:17:04;36.20;99.90
35129;DHT22;21301;43.626;10.580;2023-08-12T14:19:30;36.30;99.90
35129;DHT22;21301;43.626;10.580;2023-08-12T14:21:56;35.90;99.90
35129;DHT22;21301;43.626;10.580;2023-08-12T14:24:22;36.20;99.90
35129;DHT22;21301;43.626;10.580;2023-08-12T14:26:50;36.20;99.90
35129;DHT22;21301;43.626;10.580;2023-08-12T14:33:16;36.20;99.90
35129;DHT22;21301;43.626;10.580;2023-08-12T14:35:53;36.30;99.90
35129;DHT22;21301;43.626;10.580;2023-08-12T14:38:20;36.30;99.90
35129;DHT22;21301;43.626;10.580;2023-08-12T14:40:49;36.30;99.90
35129;DHT22;21301;43.626;10.580;2023-08-12T14:43:16;36.10;99.90
35129;DHT22;21301;43.626;10.580;2023-08-12T14:45:48;36.20;99.90
35129;DHT22;21301;43.626;10.580;2023-08-12T14:48:14;36.10;99.90
35129;DHT22;21301;43.626;10.580;2023-08-12T14:50:44;36.00;99.90
35129;DHT22;21301;43.626;10.580;2023-08-12T14:53:14;35.90;99.90
35129;DHT22;21301;43.626;10.580;2023-08-12T14:55:41;35.90;99.90
35129;DHT22;21301;43.626;10.580;2023-08-12T14:58:07;36.00;99.90
35129;DHT22;21301;43.626;10.580;2023-08-12T15:00:34;35.90;99.90
35129;DHT22;21301;43.626;10.580;2023-08-12T15:03:01;35.70;99.90
35129;DHT22;21301;43.626;10.580;2023-08-12T15:05:30;35.50;99.90
35129;DHT22;21301;43.626;10.580;2023-08-12T15:08:19;35.30;99.90
35129;DHT22;21301;43.626;10.580;2023-08-12T15:10:45;35.50;99.90
35129;DHT22;21301;43.626;10.580;2023-08-12T15:13:11;35.20;99.90
35129;DHT22;21301;43.626;10.580;2023-08-12T15:15:40;35.30;99.90
35129;DHT22;21301;43.626;10.580;2023-08-12T15:18:06;35.40;99.90
35129;DHT22;21301;43.626;10.580;2023-08-12T15:20:33;35.30;99.90
35129;DHT22;21301;43.626;10.580;2023-08-12T15:23:02;35.10;99.90
35129;DHT22;21301;43.626;10.580;2023-08-12T15:25:33;35.10;99.90
35129;DHT22;21301;43.626;10.580;2023-08-12T15:27:59;35.10;99.90
35129;DHT22;21301;43.626;10.580;2023-08-12T15:30:24;35.20;99.90
35129;DHT22;21301;43.626;10.580;2023-08-12T15:32:51;35.00;99.90
35129;DHT22;21301;43.626;10.580;2023-08-12T15:35:17;35.10;99.90
35129;DHT22;21301;43.626;10.580;2023-08-12T15:37:43;35.10;99.90
35129;DHT22;21301;43.626;10.580;2023-08-12T15:40:09;34.80;99.90